Maersk Damietta — A8OU4 — position and weather

sailwx.info

Track history (hours):
 
Tides and Currents Weather Stations Pressure Air Temp Water Temp Dewpoint Dewpoint Depression Visibility Wind Speed Wind Dir Waves Ship Positions

Maersk Damietta

Last reported at 2016-May-30 13:32 UTC. Time now 2016-May-30 14:23 UTC.
Position N 29°48' E 122°06'.

Length 293 m; draft 10.3 m.

Type: Ship (hazmat cat A). MMSI: 636091506.

Date/timePositionNaut miles runAvg speedWind from/ knotsBaromVisibWave heightAir tempDewpointWater temp
2016-May-30 13:32N 29°48' E 122°06'9 8.9
2016-May-30 12:32N 29°47' E 122°16'7 7.6
2016-May-30 11:33N 29°45' E 122°24'0 0.1
2016-May-30 10:13N 29°45' E 122°24'423131.3
2016-May-30 07:00N 22°42' E 122°24'42362.0 070 / 41010.0 2.2 24.021.121.0
2016-May-30 00:10N 29°45' E 122°24'314.4
2016-May-30 00:00N 29°42' E 122°24'3 1.0 020 / 71010.5 0.5 21.020.321.0
2016-May-29 21:22N 29°45' E 122°24'0 0.0
2016-May-29 20:22N 29°45' E 122°24'0 0.0
2016-May-29 19:28N 29°45' E 122°24'0 0.0
2016-May-29 18:28N 29°45' E 122°24'0 0.1
2016-May-29 15:22N 29°45' E 122°24'0 0.0
2016-May-29 14:10N 29°45' E 122°24'0 0.1
2016-May-29 13:08N 29°45' E 122°24'0 0.0
2016-May-29 05:26N 29°45' E 122°24'0 0.1
2016-May-29 03:32N 29°45' E 122°24'0 0.1
2016-May-29 02:20N 29°45' E 122°24'0 0.0
2016-May-29 00:32N 29°45' E 122°24'0 0.0
2016-May-28 22:26N 29°45' E 122°24'0 0.1
2016-May-28 19:20N 29°45' E 122°24'0 0.0
2016-May-28 18:14N 29°45' E 122°24'0 0.1
2016-May-28 17:29N 29°45' E 122°24'0 0.4
2016-May-28 16:33N 29°44' E 122°24'8 8.1
2016-May-28 15:32N 29°43' E 122°33'1010.1
2016-May-28 14:31N 29°44' E 122°45'55 8.5
2016-May-28 08:06N 30°33' E 122°17'4 6.9
2016-May-28 07:33N 30°34' E 122°13'7 0.4
2016-May-27 14:10N 30°37' E 122°05'1 0.9
2016-May-27 13:33N 30°36' E 122°04'1111.0
2016-May-27 12:33N 30°33' E 122°17'14 3.3
2016-May-27 08:25N 30°30' E 122°32'8 8.5
2016-May-27 07:32N 30°29' E 122°41'1413.6
2016-May-27 06:31N 30°22' E 122°55'30416.4
2016-May-26 12:00N 25°42' E 120°42'10618.8 140 / 101010.0 5.4 1.028.023.9
2016-May-26 06:22N 24°26' E 119°20'1129.9
2016-May-26 06:00N 24°18' E 119°12'2416.0 360 / 71010.0 5.4 0.529.027.727.0
2016-May-26 04:28N 24°03' E 118°51'1819.0
2016-May-26 03:31N 23°51' E 118°36'26617.2
2016-May-25 12:06N 22°17' E 114°06'610.3
2016-May-25 11:33N 22°21' E 114°03'9 9.3
2016-May-25 10:33N 22°25' E 113°53'4 0.3
2016-May-24 19:07N 22°29' E 113°52'5 8.0
2016-May-24 18:33N 22°24' E 113°53'12 9.5
2016-May-24 17:19N 22°20' E 114°05'2 2.5
2016-May-24 16:23N 22°20' E 114°08'0 0.0
2016-May-24 15:29N 22°20' E 114°08'0 0.0
2016-May-24 14:32N 22°20' E 114°08'0 0.0
2016-May-24 13:29N 22°20' E 114°08'0 0.0
2016-May-24 12:29N 22°20' E 114°08'0 0.0
2016-May-24 11:29N 22°20' E 114°08'0 0.0
2016-May-24 10:32N 22°20' E 114°08'0 0.0
2016-May-24 09:29N 22°20' E 114°08'0 0.0
2016-May-24 08:29N 22°20' E 114°08'0 0.0
2016-May-24 07:29N 22°20' E 114°08'0 0.0
2016-May-24 06:29N 22°20' E 114°08'0 0.0
2016-May-24 05:23N 22°20' E 114°08'0 0.0
2016-May-24 02:32N 22°20' E 114°08'0 0.0
2016-May-24 01:32N 22°20' E 114°08'0 0.0
2016-May-24 00:32N 22°20' E 114°08'3 3.3
2016-May-23 23:34N 22°17' E 114°06'1111.4
2016-May-23 22:33N 22°09' E 114°14'1111.2
2016-May-23 21:33N 21°60' E 114°22'3723.7
2016-May-23 20:00N 21°24' E 114°12'52316.4 260 / 71009.0 5.4 28.026.729.0
2016-May-22 12:00N 13°06' E 111°24'20417.0 180 / 51009.010.8 30.026.732.0
2016-May-22 00:00N 10°12' E 109°36'26215.4 280 / 161009.010.8 30.027.432.0
2016-May-21 07:00N 06°36' E 107°06'10715.3 270 / 161009.0 5.4 1.031.029.732.0
2016-May-21 00:00N 05°00' E 106°18'   250 / 71010.027.0 29.027.032.0
Track history (hours):
 
Tides and Currents Weather Stations Pressure Air Temp Water Temp Dewpoint Dewpoint Depression Visibility Wind Speed Wind Dir Waves Ship Positions

Maersk Damietta

Last reported at 2016-May-30 13:32 UTC. Time now 2016-May-30 14:23 UTC.
Position N 29°48' E 122°06'.

Length 293 m; draft 10.3 m.

Type: Ship (hazmat cat A). MMSI: 636091506.

Date/timePositionNaut miles runAvg speedWind from/ knotsBaromVisibWave heightAir tempDewpointWater temp
2016-May-30 13:32N 29°48' E 122°06'9 8.9
2016-May-30 12:32N 29°47' E 122°16'7 7.6
2016-May-30 11:33N 29°45' E 122°24'0 0.1
2016-May-30 10:13N 29°45' E 122°24'423131.3
2016-May-30 07:00N 22°42' E 122°24'42362.0 070 / 41010.0 2.2 24.021.121.0
2016-May-30 00:10N 29°45' E 122°24'314.4
2016-May-30 00:00N 29°42' E 122°24'3 1.0 020 / 71010.5 0.5 21.020.321.0
2016-May-29 21:22N 29°45' E 122°24'0 0.0
2016-May-29 20:22N 29°45' E 122°24'0 0.0
2016-May-29 19:28N 29°45' E 122°24'0 0.0
2016-May-29 18:28N 29°45' E 122°24'0 0.1
2016-May-29 15:22N 29°45' E 122°24'0 0.0
2016-May-29 14:10N 29°45' E 122°24'0 0.1
2016-May-29 13:08N 29°45' E 122°24'0 0.0
2016-May-29 05:26N 29°45' E 122°24'0 0.1
2016-May-29 03:32N 29°45' E 122°24'0 0.1
2016-May-29 02:20N 29°45' E 122°24'0 0.0
2016-May-29 00:32N 29°45' E 122°24'0 0.0
2016-May-28 22:26N 29°45' E 122°24'0 0.1
2016-May-28 19:20N 29°45' E 122°24'0 0.0
2016-May-28 18:14N 29°45' E 122°24'0 0.1
2016-May-28 17:29N 29°45' E 122°24'0 0.4
2016-May-28 16:33N 29°44' E 122°24'8 8.1
2016-May-28 15:32N 29°43' E 122°33'1010.1
2016-May-28 14:31N 29°44' E 122°45'55 8.5
2016-May-28 08:06N 30°33' E 122°17'4 6.9
2016-May-28 07:33N 30°34' E 122°13'7 0.4
2016-May-27 14:10N 30°37' E 122°05'1 0.9
2016-May-27 13:33N 30°36' E 122°04'1111.0
2016-May-27 12:33N 30°33' E 122°17'14 3.3
2016-May-27 08:25N 30°30' E 122°32'8 8.5
2016-May-27 07:32N 30°29' E 122°41'1413.6
2016-May-27 06:31N 30°22' E 122°55'30416.4
2016-May-26 12:00N 25°42' E 120°42'10618.8 140 / 101010.0 5.4 1.028.023.9
2016-May-26 06:22N 24°26' E 119°20'1129.9
2016-May-26 06:00N 24°18' E 119°12'2416.0 360 / 71010.0 5.4 0.529.027.727.0
2016-May-26 04:28N 24°03' E 118°51'1819.0
2016-May-26 03:31N 23°51' E 118°36'26617.2
2016-May-25 12:06N 22°17' E 114°06'610.3
2016-May-25 11:33N 22°21' E 114°03'9 9.3
2016-May-25 10:33N 22°25' E 113°53'4 0.3
2016-May-24 19:07N 22°29' E 113°52'5 8.0
2016-May-24 18:33N 22°24' E 113°53'12 9.5
2016-May-24 17:19N 22°20' E 114°05'2 2.5
2016-May-24 16:23N 22°20' E 114°08'0 0.0
2016-May-24 15:29N 22°20' E 114°08'0 0.0
2016-May-24 14:32N 22°20' E 114°08'0 0.0
2016-May-24 13:29N 22°20' E 114°08'0 0.0
2016-May-24 12:29N 22°20' E 114°08'0 0.0
2016-May-24 11:29N 22°20' E 114°08'0 0.0
2016-May-24 10:32N 22°20' E 114°08'0 0.0
2016-May-24 09:29N 22°20' E 114°08'0 0.0
2016-May-24 08:29N 22°20' E 114°08'0 0.0
2016-May-24 07:29N 22°20' E 114°08'0 0.0
2016-May-24 06:29N 22°20' E 114°08'0 0.0
2016-May-24 05:23N 22°20' E 114°08'0 0.0
2016-May-24 02:32N 22°20' E 114°08'0 0.0
2016-May-24 01:32N 22°20' E 114°08'0 0.0
2016-May-24 00:32N 22°20' E 114°08'3 3.3
2016-May-23 23:34N 22°17' E 114°06'1111.4
2016-May-23 22:33N 22°09' E 114°14'1111.2
2016-May-23 21:33N 21°60' E 114°22'3723.7
2016-May-23 20:00N 21°24' E 114°12'52316.4 260 / 71009.0 5.4 28.026.729.0
2016-May-22 12:00N 13°06' E 111°24'20417.0 180 / 51009.010.8 30.026.732.0
2016-May-22 00:00N 10°12' E 109°36'26215.4 280 / 161009.010.8 30.027.432.0
2016-May-21 07:00N 06°36' E 107°06'10715.3 270 / 161009.0 5.4 1.031.029.732.0
2016-May-21 00:00N 05°00' E 106°18'   250 / 71010.027.0 29.027.032.0

Dump ship's entire track history